Time;durP1;ratioP1;P1;durP2;ratioP2;P2;SDS_P1;SDS_P2;PMS_P1;PMS_P2;Temp;Humidity;BMP_temperature;BMP_pressure;BME280_temperature;BME280_humidity;BME280_pressure;Samples;Min_cycle;Max_cycle;Signal;HPM_P1;HPM_P2
2024/03/04 00:02:19;;;;;;;27.30;5.30;;;22.80;61.70;;;;;;5042901;28;20559;-73
2024/03/04 00:04:47;;;;;;;25.83;5.37;;;22.80;62.00;;;;;;5029184;28;20203;-74
2024/03/04 00:07:17;;;;;;;16.27;4.33;;;23.00;61.60;;;;;;5048988;28;20184;-75
2024/03/04 00:09:44;;;;;;;21.70;4.87;;;22.80;61.50;;;;;;5050867;28;20237;-73
2024/03/04 00:12:14;;;;;;;32.27;5.63;;;23.00;61.00;;;;;;5049772;28;20269;-73
2024/03/04 00:14:42;;;;;;;21.03;5.10;;;22.90;60.80;;;;;;5048382;28;20223;-77
2024/03/04 00:17:09;;;;;;;15.93;4.30;;;23.20;61.30;;;;;;5046786;28;20704;-75
2024/03/04 00:19:38;;;;;;;19.93;4.63;;;23.20;60.60;;;;;;5050990;28;20184;-74
2024/03/04 00:22:06;;;;;;;21.10;4.13;;;23.10;60.30;;;;;;5045292;28;20235;-73
2024/03/04 00:24:34;;;;;;;21.77;4.93;;;22.90;60.80;;;;;;5050848;28;20203;-75
2024/03/04 00:27:01;;;;;;;26.00;5.73;;;23.00;60.90;;;;;;5051403;28;20196;-74
2024/03/04 00:29:28;;;;;;;24.37;5.47;;;22.90;61.90;;;;;;5051221;28;20558;-75
2024/03/04 00:31:55;;;;;;;22.03;4.97;;;23.10;61.40;;;;;;5050223;28;20223;-74
2024/03/04 00:34:23;;;;;;;23.47;5.20;;;23.10;61.10;;;;;;5047888;28;20670;-72
2024/03/04 00:36:53;;;;;;;22.00;5.67;;;23.00;60.50;;;;;;5050144;28;20780;-74
2024/03/04 00:39:22;;;;;;;24.60;5.90;;;23.20;60.40;;;;;;5047572;28;20183;-76
2024/03/04 00:41:55;;;;;;;21.87;4.53;;;23.40;60.30;;;;;;5043532;28;20492;-74
2024/03/04 00:44:23;;;;;;;19.17;4.47;;;23.60;59.70;;;;;;5034583;28;20188;-75
2024/03/04 00:46:51;;;;;;;19.90;4.80;;;23.60;59.80;;;;;;5036033;28;20184;-73
2024/03/04 00:49:18;;;;;;;22.97;5.13;;;23.50;60.50;;;;;;5050976;28;20187;-74
2024/03/04 00:51:47;;;;;;;26.13;5.27;;;23.50;60.20;;;;;;5048535;28;20180;-77
2024/03/04 00:54:14;;;;;;;26.13;5.23;;;23.60;59.90;;;;;;5034915;28;20223;-74
2024/03/04 00:56:41;;;;;;;22.77;4.47;;;23.80;59.60;;;;;;5047361;28;20188;-74
2024/03/04 00:59:09;;;;;;;19.07;3.83;;;24.00;59.10;;;;;;5050992;28;20186;-71
2024/03/04 01:01:36;;;;;;;23.53;4.40;;;24.30;58.00;;;;;;5048340;28;20525;-72
2024/03/04 01:04:06;;;;;;;20.97;4.47;;;24.20;58.50;;;;;;5047569;28;20179;-73
2024/03/04 01:06:38;;;;;;;20.63;3.97;;;23.90;59.00;;;;;;5046586;28;20263;-74
2024/03/04 01:09:05;;;;;;;21.63;4.10;;;24.20;58.50;;;;;;5013124;28;20198;-74
2024/03/04 01:11:34;;;;;;;16.23;4.27;;;24.30;58.60;;;;;;5044716;28;20717;-72
2024/03/04 01:14:02;;;;;;;20.63;3.90;;;23.90;58.90;;;;;;5031510;28;20219;-73
2024/03/04 01:16:31;;;;;;;16.60;4.60;;;23.80;59.00;;;;;;5050738;28;20207;-71
2024/03/04 01:19:01;;;;;;;19.10;4.50;;;24.00;58.50;;;;;;5047626;28;20195;-72
2024/03/04 01:21:28;;;;;;;19.60;4.73;;;24.00;59.60;;;;;;5049411;28;20245;-72
2024/03/04 01:23:57;;;;;;;20.53;4.47;;;24.10;59.30;;;;;;5040521;28;20835;-73
2024/03/04 01:26:28;;;;;;;21.50;4.37;;;24.00;59.00;;;;;;5045529;28;20302;-70
2024/03/04 01:28:57;;;;;;;19.27;4.10;;;24.10;59.20;;;;;;5048820;28;20188;-70
2024/03/04 01:31:24;;;;;;;17.63;4.13;;;23.80;58.20;;;;;;5050667;28;20231;-74
2024/03/04 01:33:51;;;;;;;23.67;4.07;;;23.60;59.70;;;;;;5043440;28;20251;-73
2024/03/04 01:36:19;;;;;;;22.67;4.57;;;23.70;59.40;;;;;;5048359;28;20669;-75
2024/03/04 01:38:47;;;;;;;25.33;5.07;;;23.80;60.10;;;;;;5045907;28;20223;-74
2024/03/04 01:41:15;;;;;;;21.13;4.03;;;23.80;59.70;;;;;;5050570;28;20300;-72
2024/03/04 01:43:43;;;;;;;20.03;3.97;;;23.60;59.90;;;;;;5044674;28;20191;-73
2024/03/04 01:46:10;;;;;;;20.13;3.67;;;23.70;59.60;;;;;;5045191;28;20184;-73
2024/03/04 01:48:38;;;;;;;15.13;4.07;;;23.60;59.60;;;;;;5046803;28;20192;-73
2024/03/04 01:51:06;;;;;;;21.13;4.10;;;23.60;59.70;;;;;;5046133;28;20191;-74
2024/03/04 01:53:34;;;;;;;17.27;3.87;;;23.80;59.60;;;;;;5045422;28;20220;-71
2024/03/04 01:56:05;;;;;;;19.77;3.53;;;24.10;59.40;;;;;;5043647;28;20206;-73
2024/03/04 01:58:38;;;;;;;23.40;4.73;;;24.30;57.70;;;;;;5045569;28;20188;-72
2024/03/04 02:01:06;;;;;;;15.87;3.60;;;24.10;57.30;;;;;;5045875;28;20188;-71
2024/03/04 02:03:35;;;;;;;16.80;4.03;;;23.90;58.20;;;;;;5047462;28;20180;-73
2024/03/04 02:06:05;;;;;;;14.10;3.70;;;23.70;58.80;;;;;;5024189;28;20191;-74
2024/03/04 02:08:33;;;;;;;18.03;3.57;;;23.30;58.40;;;;;;5044905;28;20685;-73
2024/03/04 02:11:03;;;;;;;12.87;3.20;;;23.30;59.10;;;;;;5040031;28;20177;-73
2024/03/04 02:13:32;;;;;;;11.43;3.23;;;23.50;59.30;;;;;;5047608;28;20677;-72
2024/03/04 02:16:00;;;;;;;15.37;3.70;;;23.70;59.00;;;;;;5044164;28;20184;-73
2024/03/04 02:18:30;;;;;;;11.70;3.40;;;23.60;58.60;;;;;;5041124;28;20223;-73
2024/03/04 02:21:02;;;;;;;19.93;3.57;;;23.60;57.50;;;;;;5049217;28;20186;-73
2024/03/04 02:23:33;;;;;;;10.63;3.63;;;23.50;58.20;;;;;;5048715;28;20638;-73
2024/03/04 02:26:01;;;;;;;14.93;3.20;;;23.50;59.00;;;;;;5042622;28;20222;-74
2024/03/04 02:28:29;;;;;;;13.17;2.83;;;23.60;58.30;;;;;;5044017;28;20199;-74
2024/03/04 02:31:01;;;;;;;13.17;3.17;;;23.30;57.60;;;;;;5048048;28;20685;-74
2024/03/04 02:33:29;;;;;;;15.17;2.70;;;23.30;57.70;;;;;;5046510;28;20687;-74
2024/03/04 02:35:58;;;;;;;17.07;3.20;;;23.20;58.70;;;;;;5045590;28;20181;-73
2024/03/04 02:38:26;;;;;;;20.33;3.40;;;23.20;59.80;;;;;;5046359;28;20262;-72
2024/03/04 02:40:53;;;;;;;15.43;3.20;;;23.30;60.10;;;;;;5049362;28;20744;-72
2024/03/04 02:43:21;;;;;;;14.30;3.43;;;23.40;59.90;;;;;;5048914;28;20314;-74
2024/03/04 02:45:50;;;;;;;17.87;2.93;;;23.40;59.90;;;;;;5044512;28;20192;-74
2024/03/04 02:48:17;;;;;;;12.77;3.63;;;23.40;59.60;;;;;;5048479;28;20200;-73
2024/03/04 02:50:44;;;;;;;16.87;3.57;;;23.30;59.40;;;;;;5048312;28;20258;-78
2024/03/04 02:53:15;;;;;;;15.80;3.17;;;23.30;60.00;;;;;;5045203;28;20188;-73
2024/03/04 02:55:42;;;;;;;15.47;3.00;;;23.40;59.10;;;;;;5047094;28;21413;-72
2024/03/04 02:58:09;;;;;;;20.33;3.40;;;23.60;58.80;;;;;;5045815;28;20196;-73
2024/03/04 03:00:37;;;;;;;20.90;4.00;;;23.50;59.00;;;;;;5046287;28;20184;-74
2024/03/04 03:03:05;;;;;;;17.13;3.13;;;23.40;59.20;;;;;;5042000;28;20229;-76
2024/03/04 03:05:35;;;;;;;14.83;3.27;;;23.30;60.00;;;;;;5044169;28;20646;-74
2024/03/04 03:08:06;;;;;;;14.00;4.37;;;23.30;60.50;;;;;;5047635;28;20322;-73
2024/03/04 03:10:35;;;;;;;16.33;2.80;;;23.30;60.60;;;;;;5046191;28;20255;-74
2024/03/04 03:13:04;;;;;;;15.90;3.30;;;23.30;60.00;;;;;;5048624;28;20212;-74
2024/03/04 03:15:33;;;;;;;15.30;4.00;;;23.40;59.80;;;;;;5024555;28;20184;-72
2024/03/04 03:18:06;;;;;;;20.47;3.63;;;23.40;59.80;;;;;;5048145;28;20184;-73
2024/03/04 03:20:33;;;;;;;10.87;3.13;;;23.30;59.80;;;;;;5046845;28;20217;-72
2024/03/04 03:23:00;;;;;;;21.13;3.70;;;23.50;59.50;;;;;;5043814;28;20634;-74
2024/03/04 03:25:28;;;;;;;20.70;4.00;;;23.50;59.80;;;;;;5044589;28;20199;-73
2024/03/04 03:27:55;;;;;;;14.87;3.47;;;23.40;60.40;;;;;;5043703;28;20698;-73
2024/03/04 03:30:23;;;;;;;17.67;3.30;;;23.40;61.00;;;;;;5043357;28;20176;-72
2024/03/04 03:32:51;;;;;;;13.47;3.17;;;23.30;60.40;;;;;;5048180;28;20219;-73
2024/03/04 03:35:18;;;;;;;15.10;4.03;;;23.30;60.80;;;;;;5033164;28;20200;-74
2024/03/04 03:37:46;;;;;;;15.40;3.83;;;23.20;61.30;;;;;;5044353;28;21032;-74
2024/03/04 03:40:14;;;;;;;18.20;3.73;;;23.30;61.80;;;;;;5044348;28;20204;-74
2024/03/04 03:42:42;;;;;;;15.47;3.57;;;23.40;61.00;;;;;;5052283;28;20191;-74
2024/03/04 03:45:09;;;;;;;18.67;3.80;;;23.40;61.30;;;;;;5049714;28;20199;-74
2024/03/04 03:47:40;;;;;;;14.67;3.47;;;23.50;60.80;;;;;;5051305;28;20184;-75
2024/03/04 03:50:07;;;;;;;17.27;3.30;;;23.50;60.60;;;;;;5051181;28;20180;-73
2024/03/04 03:52:35;;;;;;;14.53;3.70;;;23.60;60.70;;;;;;5047128;28;20184;-74
2024/03/04 03:55:02;;;;;;;19.33;4.07;;;23.70;60.20;;;;;;5049632;28;20499;-73
2024/03/04 03:57:29;;;;;;;13.47;3.30;;;23.80;60.20;;;;;;5049757;28;20184;-74
2024/03/04 03:59:57;;;;;;;16.43;3.90;;;24.10;60.20;;;;;;5050173;28;20226;-72
2024/03/04 04:02:25;;;;;;;17.93;3.40;;;24.30;59.40;;;;;;5048649;28;20176;-72
2024/03/04 04:04:52;;;;;;;14.30;3.30;;;24.60;57.80;;;;;;5031783;28;20271;-73
2024/03/04 04:07:19;;;;;;;15.30;3.63;;;24.60;58.40;;;;;;5047941;28;20595;-75
2024/03/04 04:09:49;;;;;;;14.27;3.57;;;25.20;57.30;;;;;;5049918;28;21398;-74
2024/03/04 04:12:20;;;;;;;15.90;3.40;;;25.80;55.00;;;;;;5051385;28;20172;-75
2024/03/04 04:14:49;;;;;;;16.47;3.20;;;26.30;53.10;;;;;;5050784;28;20220;-74
2024/03/04 04:17:16;;;;;;;12.10;3.97;;;26.00;53.00;;;;;;5049995;28;20274;-75
2024/03/04 04:19:43;;;;;;;17.87;3.73;;;25.80;53.10;;;;;;5047732;28;20182;-72
2024/03/04 04:22:13;;;;;;;15.70;3.67;;;25.50;52.50;;;;;;5051712;28;20259;-73
2024/03/04 04:24:41;;;;;;;12.27;3.43;;;25.60;53.40;;;;;;5043012;28;20179;-74
2024/03/04 04:27:16;;;;;;;13.83;3.33;;;25.60;53.40;;;;;;5047314;28;20207;-75
2024/03/04 04:29:49;;;;;;;20.43;3.50;;;25.10;54.80;;;;;;5049058;28;20180;-74
2024/03/04 04:32:16;;;;;;;17.17;4.03;;;24.90;56.10;;;;;;5044639;28;20228;-74
2024/03/04 04:34:46;;;;;;;15.67;3.53;;;24.70;56.70;;;;;;5044179;28;20689;-74
2024/03/04 04:37:14;;;;;;;15.40;3.50;;;24.80;56.50;;;;;;5043902;28;20199;-74
2024/03/04 04:39:42;;;;;;;19.73;4.20;;;24.70;57.10;;;;;;5047254;28;20661;-74
2024/03/04 04:42:10;;;;;;;17.10;3.93;;;24.70;57.00;;;;;;5045055;28;20176;-73
2024/03/04 04:44:37;;;;;;;20.30;4.07;;;24.80;56.80;;;;;;5047097;28;20184;-74
2024/03/04 04:47:05;;;;;;;15.60;3.73;;;25.10;56.70;;;;;;5041191;28;20276;-75
2024/03/04 04:49:34;;;;;;;21.57;4.17;;;24.80;56.00;;;;;;5044957;28;20204;-73
2024/03/04 04:52:01;;;;;;;21.13;3.53;;;24.80;57.10;;;;;;5049341;28;20218;-75
2024/03/04 04:54:28;;;;;;;18.23;3.93;;;25.00;56.50;;;;;;5043228;28;20307;-75
2024/03/04 04:56:56;;;;;;;12.60;3.73;;;24.80;57.00;;;;;;5048628;28;20263;-73
2024/03/04 04:59:24;;;;;;;14.67;3.23;;;24.60;57.10;;;;;;5041645;28;20271;-74
2024/03/04 05:01:52;;;;;;;17.47;3.43;;;24.50;57.60;;;;;;5051370;28;20199;-75
2024/03/04 05:04:21;;;;;;;14.33;3.80;;;24.30;57.60;;;;;;5046868;28;20219;-74
2024/03/04 05:06:48;;;;;;;16.03;3.40;;;24.30;57.60;;;;;;5048513;28;20184;-74
2024/03/04 05:09:15;;;;;;;15.73;3.77;;;24.20;58.10;;;;;;5027310;28;20245;-75
2024/03/04 05:11:43;;;;;;;18.10;3.87;;;24.60;57.20;;;;;;5040967;28;20191;-73
2024/03/04 05:14:11;;;;;;;13.17;3.37;;;24.60;56.70;;;;;;5045989;28;20306;-75
2024/03/04 05:16:38;;;;;;;17.03;3.60;;;24.50;56.10;;;;;;5047048;28;20180;-75
2024/03/04 05:19:05;;;;;;;18.93;3.70;;;24.60;56.60;;;;;;5041353;28;20188;-75
2024/03/04 05:21:33;;;;;;;16.67;3.47;;;24.70;55.90;;;;;;5045503;28;20263;-75
2024/03/04 05:24:00;;;;;;;17.07;3.50;;;24.80;55.90;;;;;;5045291;28;20185;-75
2024/03/04 05:26:28;;;;;;;14.60;3.40;;;24.80;56.50;;;;;;5042717;28;20245;-75
2024/03/04 05:28:55;;;;;;;15.07;3.63;;;24.80;56.30;;;;;;5047223;28;20176;-75
2024/03/04 05:31:23;;;;;;;17.17;3.20;;;24.60;56.00;;;;;;5044540;28;20311;-74
2024/03/04 05:33:50;;;;;;;17.73;3.33;;;24.30;56.90;;;;;;5029960;28;20277;-74
2024/03/04 05:36:19;;;;;;;14.80;2.87;;;24.20;58.00;;;;;;5046182;28;20191;-76
2024/03/04 05:38:46;;;;;;;16.40;3.53;;;24.00;58.10;;;;;;5045057;28;20253;-74
2024/03/04 05:41:16;;;;;;;13.90;3.40;;;23.90;58.60;;;;;;5045158;28;20199;-74
2024/03/04 05:43:43;;;;;;;13.80;3.47;;;23.80;58.50;;;;;;5029199;28;20216;-76
2024/03/04 05:46:12;;;;;;;20.30;3.63;;;23.90;58.60;;;;;;5043413;28;20356;-74
2024/03/04 05:48:39;;;;;;;12.50;2.90;;;23.80;58.50;;;;;;5038701;28;20232;-72
2024/03/04 05:51:06;;;;;;;15.43;3.93;;;23.70;58.90;;;;;;5047967;28;20658;-74
2024/03/04 05:53:35;;;;;;;18.73;4.17;;;23.70;58.40;;;;;;5047301;28;20246;-73
2024/03/04 05:56:04;;;;;;;13.17;3.60;;;23.90;58.00;;;;;;5032337;28;20184;-73
2024/03/04 05:58:31;;;;;;;12.80;3.27;;;23.90;58.10;;;;;;5049705;28;20184;-70
2024/03/04 06:01:00;;;;;;;13.87;3.10;;;23.80;58.30;;;;;;5046919;28;20225;-75
2024/03/04 06:03:29;;;;;;;21.03;3.20;;;23.70;59.30;;;;;;5049011;28;20188;-74
2024/03/04 06:05:56;;;;;;;15.03;3.40;;;23.80;59.80;;;;;;5048222;28;20168;-74
2024/03/04 06:08:23;;;;;;;18.70;3.60;;;23.80;61.00;;;;;;5049784;28;20190;-74
2024/03/04 06:10:51;;;;;;;18.43;3.70;;;23.70;62.00;;;;;;5042019;28;20184;-75
2024/03/04 06:13:22;;;;;;;15.73;3.47;;;23.80;61.80;;;;;;5050594;28;20210;-73
2024/03/04 06:15:49;;;;;;;18.20;3.83;;;23.80;62.30;;;;;;5045886;28;20187;-71
2024/03/04 06:18:18;;;;;;;18.63;3.53;;;23.70;62.50;;;;;;5050560;28;20185;-74
2024/03/04 06:20:47;;;;;;;12.73;3.20;;;23.70;62.00;;;;;;5045211;28;20190;-74
2024/03/04 06:23:14;;;;;;;10.90;3.17;;;23.70;62.20;;;;;;5048287;28;20194;-74
2024/03/04 06:25:41;;;;;;;18.20;3.17;;;23.50;62.60;;;;;;5048038;28;20201;-74
2024/03/04 06:28:09;;;;;;;15.83;2.93;;;23.50;62.90;;;;;;5047914;28;20188;-75
2024/03/04 06:30:36;;;;;;;15.23;4.13;;;23.30;63.60;;;;;;5046801;28;20693;-74
2024/03/04 06:33:04;;;;;;;16.30;3.27;;;23.40;63.50;;;;;;5032645;28;20216;-73
2024/03/04 06:35:31;;;;;;;18.83;3.37;;;23.30;62.80;;;;;;5047516;28;20555;-72
2024/03/04 06:38:01;;;;;;;16.93;3.17;;;23.60;61.80;;;;;;5048437;28;20287;-75
2024/03/04 06:40:30;;;;;;;15.53;4.23;;;23.60;61.80;;;;;;5043816;28;20628;-76
2024/03/04 06:42:57;;;;;;;14.23;3.10;;;23.40;62.30;;;;;;5045624;28;20188;-73
2024/03/04 06:45:24;;;;;;;14.37;3.00;;;23.30;63.20;;;;;;5046283;28;20195;-72
2024/03/04 06:47:53;;;;;;;14.83;3.40;;;23.00;63.40;;;;;;5043196;28;20176;-75
2024/03/04 06:50:20;;;;;;;14.53;2.90;;;22.80;63.70;;;;;;5045059;28;20542;-77
2024/03/04 06:52:47;;;;;;;18.63;3.10;;;22.80;64.50;;;;;;5046556;28;20196;-73
2024/03/04 06:55:15;;;;;;;14.07;2.90;;;22.80;64.50;;;;;;5043114;28;20241;-73
2024/03/04 06:57:42;;;;;;;15.63;3.17;;;22.80;64.70;;;;;;5043304;28;20183;-73
2024/03/04 07:00:11;;;;;;;17.30;3.50;;;22.60;64.90;;;;;;5043898;28;20258;-73
2024/03/04 07:02:39;;;;;;;19.97;3.83;;;22.60;65.00;;;;;;5047095;28;20191;-73
2024/03/04 07:05:08;;;;;;;19.57;3.97;;;22.60;64.90;;;;;;5042651;28;20597;-74
2024/03/04 07:07:36;;;;;;;15.27;3.23;;;22.60;64.70;;;;;;5045245;28;20638;-74
2024/03/04 07:10:07;;;;;;;17.57;3.50;;;22.50;65.10;;;;;;5044507;28;20218;-73
2024/03/04 07:12:37;;;;;;;17.20;3.73;;;22.40;65.20;;;;;;5047002;28;20274;-74
2024/03/04 07:15:08;;;;;;;13.10;3.20;;;22.70;64.70;;;;;;5043078;28;20868;-73
2024/03/04 07:17:35;;;;;;;14.63;4.20;;;23.00;63.50;;;;;;5031141;28;20215;-75
2024/03/04 07:20:03;;;;;;;17.80;3.77;;;23.90;61.70;;;;;;5051714;28;20241;-74
2024/03/04 07:22:31;;;;;;;12.43;2.80;;;24.20;60.40;;;;;;5051142;28;20256;-73
2024/03/04 07:24:58;;;;;;;16.77;3.30;;;25.30;57.10;;;;;;5051741;28;20241;-75
2024/03/04 07:27:25;;;;;;;15.87;3.57;;;24.80;57.40;;;;;;5051713;28;20267;-74
2024/03/04 07:29:52;;;;;;;15.93;3.60;;;23.90;59.90;;;;;;5051004;28;20187;-73
2024/03/04 07:32:20;;;;;;;13.33;3.20;;;23.30;61.10;;;;;;5046812;28;20274;-72
2024/03/04 07:34:47;;;;;;;14.80;3.10;;;23.10;61.70;;;;;;5048585;28;20212;-75
2024/03/04 07:37:15;;;;;;;12.17;3.40;;;22.80;63.00;;;;;;5050970;28;20211;-75
2024/03/04 07:39:43;;;;;;;15.30;3.63;;;22.70;63.00;;;;;;5046143;28;20180;-73
2024/03/04 07:42:15;;;;;;;17.47;3.50;;;23.00;61.80;;;;;;5044440;28;20657;-74
2024/03/04 07:44:44;;;;;;;14.63;2.90;;;23.00;61.90;;;;;;5050874;28;20191;-75
2024/03/04 07:47:14;;;;;;;15.13;3.77;;;22.80;62.90;;;;;;5052456;28;20180;-74
2024/03/04 07:49:41;;;;;;;13.80;3.73;;;22.90;62.90;;;;;;5050686;28;20188;-74
2024/03/04 07:52:09;;;;;;;14.37;2.80;;;23.00;62.30;;;;;;5047099;28;20247;-74
2024/03/04 07:54:39;;;;;;;15.17;3.60;;;22.80;62.80;;;;;;5044831;28;20216;-73
2024/03/04 07:57:06;;;;;;;17.23;3.40;;;22.60;63.40;;;;;;5051448;28;20218;-73
2024/03/04 07:59:35;;;;;;;17.47;3.63;;;22.40;64.00;;;;;;5028252;28;20184;-74
2024/03/04 08:02:07;;;;;;;20.90;3.30;;;22.30;64.00;;;;;;5051023;28;20707;-72
2024/03/04 08:04:34;;;;;;;17.53;3.83;;;22.10;64.10;;;;;;5046020;28;20195;-74
2024/03/04 08:07:03;;;;;;;13.23;2.70;;;22.10;64.60;;;;;;5049445;28;20190;-72
2024/03/04 08:09:30;;;;;;;15.27;3.27;;;22.00;64.10;;;;;;5050727;28;20203;-72
2024/03/04 08:11:57;;;;;;;19.20;4.17;;;21.80;64.60;;;;;;5051262;28;20180;-72
2024/03/04 08:14:25;;;;;;;16.80;3.77;;;21.70;65.00;;;;;;5048853;28;20689;-73
2024/03/04 08:16:52;;;;;;;15.37;3.00;;;21.70;65.20;;;;;;5049583;28;20180;-74
2024/03/04 08:19:21;;;;;;;14.67;3.30;;;21.60;65.30;;;;;;5051486;28;20218;-72
2024/03/04 08:21:48;;;;;;;14.53;2.67;;;21.50;65.60;;;;;;5051982;28;20179;-75
2024/03/04 08:24:17;;;;;;;15.43;3.60;;;21.50;65.70;;;;;;5046169;28;20188;-75
2024/03/04 08:26:48;;;;;;;16.53;3.30;;;21.40;66.10;;;;;;5041910;28;20254;-74
2024/03/04 08:29:16;;;;;;;18.30;3.07;;;21.30;66.40;;;;;;5030074;28;20196;-74
2024/03/04 08:31:43;;;;;;;14.23;3.10;;;21.30;66.40;;;;;;5048912;28;20750;-74
2024/03/04 08:34:15;;;;;;;16.07;3.57;;;21.30;66.30;;;;;;5050063;28;20269;-72
2024/03/04 08:36:42;;;;;;;14.67;3.47;;;21.30;66.60;;;;;;5031788;28;20184;-75
2024/03/04 08:39:10;;;;;;;17.63;3.40;;;21.30;66.60;;;;;;5046673;28;20237;-76
2024/03/04 08:41:48;;;;;;;20.07;3.43;;;21.20;66.70;;;;;;5049889;28;20184;-74
2024/03/04 08:44:16;;;;;;;18.20;3.33;;;21.20;66.90;;;;;;5044888;28;20196;-75
2024/03/04 08:46:44;;;;;;;20.53;3.60;;;21.20;66.80;;;;;;5048966;28;20180;-76
2024/03/04 08:49:13;;;;;;;17.07;3.03;;;21.20;66.70;;;;;;5048227;28;20211;-76
2024/03/04 08:51:41;;;;;;;19.90;3.90;;;21.20;66.60;;;;;;5048688;28;20192;-74
2024/03/04 08:54:09;;;;;;;21.33;3.53;;;21.10;66.60;;;;;;5045247;28;20242;-73
2024/03/04 08:56:38;;;;;;;17.83;3.77;;;21.00;66.50;;;;;;5048349;28;20180;-74
2024/03/04 08:59:07;;;;;;;16.93;3.40;;;21.00;66.70;;;;;;5044941;28;20172;-74
2024/03/04 09:01:34;;;;;;;15.37;3.03;;;20.90;66.30;;;;;;5046523;28;20199;-74
2024/03/04 09:04:02;;;;;;;19.43;3.07;;;21.00;66.50;;;;;;5042758;28;20184;-74
2024/03/04 09:06:29;;;;;;;15.93;2.90;;;20.90;66.50;;;;;;5046938;28;20183;-73
2024/03/04 09:08:57;;;;;;;22.60;3.47;;;20.90;66.00;;;;;;5039688;28;20181;-74
2024/03/04 09:11:27;;;;;;;12.53;2.93;;;20.90;66.30;;;;;;5047511;28;20201;-73
2024/03/04 09:13:55;;;;;;;20.13;3.80;;;20.90;66.70;;;;;;5025451;28;20527;-74
2024/03/04 09:16:23;;;;;;;20.77;3.77;;;20.90;66.40;;;;;;5050565;28;20180;-74
2024/03/04 09:18:51;;;;;;;11.83;3.07;;;20.90;66.10;;;;;;5046750;28;20177;-75
2024/03/04 09:21:24;;;;;;;16.43;3.83;;;20.90;66.20;;;;;;5048345;28;20192;-73
2024/03/04 09:23:54;;;;;;;11.47;2.87;;;20.80;66.00;;;;;;5049151;28;20191;-74
2024/03/04 09:26:27;;;;;;;14.83;3.33;;;20.80;66.00;;;;;;5047217;28;20191;-74
2024/03/04 09:28:54;;;;;;;15.60;3.77;;;20.80;66.30;;;;;;5049706;28;20184;-74
2024/03/04 09:31:22;;;;;;;15.03;3.00;;;20.80;66.30;;;;;;5044702;28;20220;-74
2024/03/04 09:33:49;;;;;;;15.33;3.03;;;20.80;66.20;;;;;;5046914;28;20288;-74
2024/03/04 09:36:19;;;;;;;18.70;3.50;;;20.70;66.20;;;;;;5045330;28;20176;-75
2024/03/04 09:38:46;;;;;;;12.60;3.30;;;20.70;66.30;;;;;;5048089;28;20764;-73
2024/03/04 09:41:14;;;;;;;20.73;3.33;;;20.70;66.40;;;;;;5043755;28;20184;-74
2024/03/04 09:43:46;;;;;;;14.87;2.90;;;20.60;66.50;;;;;;5047227;28;21068;-73
2024/03/04 09:46:16;;;;;;;15.03;3.23;;;20.60;66.40;;;;;;5028173;28;20200;-74
2024/03/04 09:48:45;;;;;;;17.00;2.90;;;20.60;66.20;;;;;;5044640;28;20185;-74
2024/03/04 09:51:13;;;;;;;19.63;3.40;;;20.50;66.40;;;;;;5045906;28;20254;-74
2024/03/04 09:53:42;;;;;;;11.23;2.60;;;20.50;66.20;;;;;;5045659;28;20271;-73
2024/03/04 09:56:11;;;;;;;16.80;2.93;;;20.50;66.60;;;;;;5046591;28;20311;-74
2024/03/04 09:58:38;;;;;;;16.17;3.13;;;20.40;66.50;;;;;;5046181;28;20281;-72
2024/03/04 10:01:07;;;;;;;13.17;2.73;;;20.40;66.50;;;;;;5043354;28;20180;-75
2024/03/04 10:03:35;;;;;;;16.53;3.50;;;20.40;66.90;;;;;;5041515;28;20179;-74
2024/03/04 10:06:05;;;;;;;12.77;2.80;;;20.30;66.70;;;;;;5038730;28;20223;-75
2024/03/04 10:08:32;;;;;;;15.57;3.20;;;20.30;66.70;;;;;;5043088;28;20186;-75
2024/03/04 10:11:00;;;;;;;15.87;4.03;;;20.30;66.70;;;;;;5047385;28;20229;-72
2024/03/04 10:13:28;;;;;;;18.20;3.47;;;20.30;66.90;;;;;;5047238;28;20207;-74
2024/03/04 10:15:58;;;;;;;18.13;3.53;;;20.30;66.80;;;;;;5046134;28;20698;-73
2024/03/04 10:18:25;;;;;;;15.20;2.90;;;20.20;67.00;;;;;;5049684;28;20179;-75
2024/03/04 10:20:55;;;;;;;16.20;2.77;;;20.20;66.90;;;;;;5051761;28;20195;-74
2024/03/04 10:23:26;;;;;;;16.80;3.20;;;20.20;66.60;;;;;;5042662;28;20202;-74
2024/03/04 10:26:16;;;;;;;13.63;3.73;;;20.20;66.80;;;;;;5039666;28;20187;-73
2024/03/04 10:28:45;;;;;;;17.63;3.47;;;20.20;66.40;;;;;;5046738;28;20188;-74
2024/03/04 10:31:14;;;;;;;19.17;3.07;;;20.20;66.80;;;;;;5030006;28;20277;-74
2024/03/04 10:33:42;;;;;;;15.13;3.03;;;20.10;66.60;;;;;;5045562;28;20211;-76
2024/03/04 10:36:17;;;;;;;15.03;3.00;;;20.10;66.50;;;;;;5044712;28;20196;-75
2024/03/04 10:38:49;;;;;;;15.93;2.83;;;20.10;66.60;;;;;;5021492;28;21626;-74
2024/03/04 10:41:23;;;;;;;19.10;2.87;;;20.10;66.70;;;;;;5046505;28;20206;-75
2024/03/04 10:43:52;;;;;;;13.73;2.60;;;20.00;66.70;;;;;;5041998;28;20657;-76
2024/03/04 10:46:22;;;;;;;15.80;2.57;;;20.00;66.70;;;;;;5042829;28;20674;-76
2024/03/04 10:48:52;;;;;;;15.07;3.00;;;20.00;67.10;;;;;;5039383;28;20184;-74
2024/03/04 10:51:22;;;;;;;15.57;2.93;;;19.90;67.10;;;;;;5034484;28;20196;-73
2024/03/04 10:53:50;;;;;;;15.37;3.13;;;20.00;67.40;;;;;;5040252;28;20211;-75
2024/03/04 10:56:18;;;;;;;16.50;3.13;;;20.00;67.60;;;;;;5044213;28;20184;-74
2024/03/04 10:58:49;;;;;;;15.40;3.43;;;19.90;67.30;;;;;;5044900;28;20212;-75
2024/03/04 11:01:21;;;;;;;14.87;3.00;;;19.80;67.70;;;;;;5046431;28;20180;-76
2024/03/04 11:03:54;;;;;;;17.47;3.80;;;19.80;67.80;;;;;;5042567;28;20666;-75
2024/03/04 11:06:27;;;;;;;16.47;2.77;;;19.80;68.00;;;;;;5046114;28;20650;-75
2024/03/04 11:09:03;;;;;;;18.73;3.67;;;19.80;68.00;;;;;;5046701;28;20196;-74
2024/03/04 11:11:38;;;;;;;12.10;3.20;;;19.80;68.00;;;;;;5042577;28;20186;-74
2024/03/04 11:14:19;;;;;;;13.97;2.90;;;19.70;67.90;;;;;;5049131;28;20221;-73
2024/03/04 11:16:50;;;;;;;14.30;2.80;;;19.70;68.20;;;;;;5043412;28;20176;-74
2024/03/04 11:19:34;;;;;;;17.13;3.20;;;19.70;68.10;;;;;;5049535;28;20199;-74
2024/03/04 11:22:04;;;;;;;14.87;3.20;;;19.70;68.20;;;;;;5041737;28;20226;-74
2024/03/04 11:24:33;;;;;;;21.80;3.53;;;19.70;68.10;;;;;;5040547;28;20184;-74
2024/03/04 11:27:04;;;;;;;17.67;3.67;;;19.70;68.60;;;;;;5045212;28;20181;-74
2024/03/04 11:29:32;;;;;;;12.03;2.47;;;19.70;68.40;;;;;;5038468;28;20180;-76
2024/03/04 11:32:04;;;;;;;24.53;3.73;;;19.70;68.80;;;;;;5040890;28;20262;-74
2024/03/04 11:34:51;;;;;;;18.23;2.73;;;19.60;68.70;;;;;;5020512;28;20215;-75
2024/03/04 11:37:19;;;;;;;17.67;3.67;;;19.60;69.00;;;;;;5045447;28;20199;-74
2024/03/04 11:39:46;;;;;;;18.60;3.53;;;19.50;69.20;;;;;;5034633;28;20738;-74
2024/03/04 11:42:33;;;;;;;13.37;2.93;;;19.50;69.00;;;;;;5043689;28;20191;-73
2024/03/04 11:45:02;;;;;;;20.13;3.17;;;19.50;68.90;;;;;;5039893;28;20227;-75
2024/03/04 11:47:32;;;;;;;15.50;3.00;;;19.50;68.90;;;;;;5046167;28;20183;-76
2024/03/04 11:50:04;;;;;;;15.20;3.47;;;19.50;69.30;;;;;;5033141;28;20235;-73
2024/03/04 11:52:38;;;;;;;11.47;2.87;;;19.40;69.20;;;;;;5039466;28;20180;-77
2024/03/04 11:55:08;;;;;;;19.37;2.90;;;19.40;69.30;;;;;;5044264;28;20223;-76
2024/03/04 11:57:36;;;;;;;17.07;3.23;;;19.30;69.40;;;;;;5046986;28;20267;-76
2024/03/04 12:00:09;;;;;;;18.83;3.43;;;19.30;69.50;;;;;;5047711;28;20253;-75
2024/03/04 12:02:40;;;;;;;15.30;2.90;;;19.40;69.50;;;;;;5041902;28;20565;-75
2024/03/04 12:05:10;;;;;;;14.27;3.07;;;19.30;69.60;;;;;;5050792;28;20183;-75
2024/03/04 12:07:38;;;;;;;17.47;3.07;;;19.30;69.60;;;;;;5050860;28;20183;-74
2024/03/04 12:10:08;;;;;;;16.60;3.40;;;19.30;69.60;;;;;;5042208;28;20518;-74
2024/03/04 12:12:41;;;;;;;19.53;3.77;;;19.30;69.50;;;;;;5046189;28;20180;-73
2024/03/04 12:15:12;;;;;;;19.53;3.73;;;19.30;69.60;;;;;;5042778;28;20691;-73
2024/03/04 12:17:40;;;;;;;15.93;3.23;;;19.30;69.70;;;;;;5051192;28;20192;-73
2024/03/04 12:20:09;;;;;;;17.63;3.47;;;19.30;69.90;;;;;;5044769;28;20187;-74
2024/03/04 12:22:39;;;;;;;14.07;3.20;;;19.20;69.70;;;;;;5043175;28;20172;-74
2024/03/04 12:25:09;;;;;;;11.87;2.93;;;19.20;69.40;;;;;;5042280;28;20172;-73
2024/03/04 12:27:41;;;;;;;14.20;3.33;;;19.20;69.30;;;;;;5049857;28;20180;-75
2024/03/04 12:30:10;;;;;;;14.57;2.60;;;19.20;69.50;;;;;;5047723;28;20168;-74
2024/03/04 12:32:37;;;;;;;13.80;2.87;;;19.30;69.40;;;;;;5043659;28;20223;-74
2024/03/04 12:35:19;;;;;;;13.87;2.97;;;19.20;69.20;;;;;;5048285;28;20677;-74
2024/03/04 12:37:51;;;;;;;12.13;3.07;;;19.20;69.40;;;;;;5030668;28;20180;-73
2024/03/04 12:40:23;;;;;;;12.87;2.73;;;19.20;69.50;;;;;;5043806;28;20270;-74
2024/03/04 12:43:02;;;;;;;8.97;3.17;;;19.10;69.60;;;;;;5047723;28;20206;-75
2024/03/04 12:45:34;;;;;;;14.97;3.13;;;19.10;69.60;;;;;;5043225;28;20186;-74